createdAt,value
2018-05-17T00:00:59.424Z,6.70
2018-05-17T00:04:01.956Z,7.47
2018-05-17T00:07:04.440Z,7.30
2018-05-17T00:10:06.937Z,6.70
2018-05-17T00:13:09.452Z,6.80
2018-05-17T00:16:11.960Z,10.67
2018-05-17T00:19:14.488Z,9.57
2018-05-17T00:22:17.020Z,9.00
2018-05-17T00:25:19.546Z,9.90
2018-05-17T00:28:22.079Z,7.03
2018-05-17T00:31:24.606Z,6.77
2018-05-17T00:34:27.137Z,8.20
2018-05-17T00:37:29.662Z,7.53
2018-05-17T00:40:32.165Z,7.30
2018-05-17T00:43:34.669Z,7.50
2018-05-17T00:46:37.184Z,7.00
2018-05-17T00:49:39.714Z,7.70
2018-05-17T00:52:42.202Z,7.47
2018-05-17T00:55:44.678Z,9.27
2018-05-17T00:58:47.161Z,8.77
2018-05-17T01:01:49.646Z,8.63
2018-05-17T01:04:52.163Z,8.57
2018-05-17T01:07:54.717Z,8.80
2018-05-17T01:10:57.219Z,9.43
2018-05-17T01:13:59.737Z,9.13
2018-05-17T01:17:02.317Z,8.53
2018-05-17T01:20:04.829Z,9.40
2018-05-17T01:23:07.368Z,9.90
2018-05-17T01:26:09.859Z,10.23
2018-05-17T01:29:12.378Z,9.90
2018-05-17T01:32:14.913Z,10.17
2018-05-17T01:35:17.407Z,10.70
2018-05-17T01:38:26.385Z,10.07
2018-05-17T01:41:28.873Z,9.90
2018-05-17T01:44:31.392Z,10.63
2018-05-17T01:47:33.914Z,10.17
2018-05-17T01:50:37.018Z,11.10
2018-05-17T01:53:39.527Z,11.00
2018-05-17T01:56:42.011Z,10.67
2018-05-17T01:59:44.512Z,10.90
2018-05-17T02:02:47.032Z,11.20
2018-05-17T02:05:49.560Z,11.80
2018-05-17T02:08:52.072Z,12.03
2018-05-17T02:11:54.593Z,12.10
2018-05-17T02:14:57.109Z,11.03
2018-05-17T02:17:59.612Z,12.10
2018-05-17T02:21:02.143Z,11.10
2018-05-17T02:24:05.674Z,11.13
2018-05-17T02:27:08.195Z,10.87
2018-05-17T02:30:10.711Z,11.10
2018-05-17T02:33:13.247Z,10.73
2018-05-17T02:36:15.760Z,10.77
2018-05-17T02:39:18.304Z,11.43
2018-05-17T02:42:20.807Z,10.77
2018-05-17T02:45:23.324Z,11.13
2018-05-17T02:48:25.864Z,11.07
2018-05-17T02:51:28.348Z,10.90
2018-05-17T02:54:30.888Z,11.00
2018-05-17T02:57:33.376Z,11.90
2018-05-17T03:00:35.902Z,12.43
2018-05-17T03:03:38.408Z,13.47
2018-05-17T03:06:41.012Z,12.83
2018-05-17T03:09:43.511Z,13.33
2018-05-17T03:12:46.097Z,13.93
2018-05-17T03:15:48.633Z,14.43
2018-05-17T03:18:51.158Z,14.60
2018-05-17T03:21:53.650Z,14.73
2018-05-17T03:24:56.184Z,14.43
2018-05-17T03:27:58.684Z,13.97
2018-05-17T03:31:01.213Z,15.57
2018-05-17T03:34:03.779Z,15.80
2018-05-17T03:37:06.304Z,14.80
2018-05-17T03:40:08.829Z,15.17
2018-05-17T03:43:11.369Z,15.07
2018-05-17T03:46:13.869Z,15.70
2018-05-17T03:49:16.360Z,16.23
2018-05-17T03:52:18.887Z,14.67
2018-05-17T03:55:21.376Z,15.33
2018-05-17T03:58:23.902Z,15.67
2018-05-17T04:01:38.003Z,17.43
2018-05-17T04:04:52.329Z,17.07
2018-05-17T04:07:54.827Z,16.17
2018-05-17T04:10:57.349Z,15.90
2018-05-17T04:13:59.885Z,17.80
2018-05-17T04:17:02.409Z,17.77
2018-05-17T04:20:04.967Z,18.93
2018-05-17T04:23:08.180Z,16.90
2018-05-17T04:26:10.742Z,18.60
2018-05-17T04:29:13.311Z,18.50
2018-05-17T04:32:15.836Z,17.80
2018-05-17T04:35:18.365Z,19.07
2018-05-17T04:38:20.894Z,18.13
2018-05-17T04:41:23.425Z,19.30
2018-05-17T04:44:25.953Z,18.73
2018-05-17T04:47:28.480Z,18.23
2018-05-17T04:50:31.024Z,18.50
2018-05-17T04:53:33.554Z,19.13
2018-05-17T04:56:36.332Z,17.80
2018-05-17T04:59:38.857Z,18.27
2018-05-17T05:02:41.442Z,20.20
2018-05-17T05:05:44.002Z,18.50
2018-05-17T05:08:46.536Z,18.10
2018-05-17T05:11:49.052Z,18.77
2018-05-17T05:14:51.612Z,17.77
2018-05-17T05:17:54.111Z,17.33
2018-05-17T05:20:56.636Z,17.47
2018-05-17T05:23:59.173Z,18.00
2018-05-17T05:27:01.667Z,17.23
2018-05-17T05:30:04.188Z,17.13
2018-05-17T05:33:06.682Z,16.77
2018-05-17T05:36:09.217Z,16.47
2018-05-17T05:39:11.747Z,15.50
2018-05-17T05:42:14.323Z,16.47
2018-05-17T05:45:16.847Z,14.73
2018-05-17T05:48:19.348Z,15.20
2018-05-17T05:51:21.851Z,14.40
2018-05-17T05:54:24.435Z,15.10
2018-05-17T05:57:26.974Z,15.43
2018-05-17T06:00:30.150Z,13.83
2018-05-17T06:03:32.643Z,13.70
2018-05-17T06:06:35.151Z,12.33
2018-05-17T06:09:37.684Z,13.90
2018-05-17T06:12:40.189Z,14.23
2018-05-17T06:15:42.772Z,18.13
2018-05-17T06:18:45.248Z,12.50
2018-05-17T06:21:47.778Z,13.70
2018-05-17T06:24:50.294Z,12.60
2018-05-17T06:27:52.833Z,12.20
2018-05-17T06:30:55.357Z,13.17
2018-05-17T06:33:57.846Z,12.93
2018-05-17T06:37:00.369Z,11.47
2018-05-17T06:40:02.884Z,13.10
2018-05-17T06:43:05.366Z,11.23
2018-05-17T06:46:07.857Z,12.13
2018-05-17T06:49:10.389Z,11.97
2018-05-17T06:52:12.914Z,10.90
2018-05-17T06:55:15.410Z,11.10
2018-05-17T06:58:17.888Z,10.43
2018-05-17T07:01:20.398Z,10.83
2018-05-17T07:04:22.943Z,11.77
2018-05-17T07:07:25.441Z,11.50
2018-05-17T07:10:28.001Z,10.40
2018-05-17T07:13:30.576Z,10.80
2018-05-17T07:16:33.087Z,11.50
2018-05-17T07:19:35.604Z,12.60
2018-05-17T07:22:39.634Z,12.20
2018-05-17T07:25:42.137Z,10.93
2018-05-17T07:28:44.661Z,13.00
2018-05-17T07:31:47.207Z,13.20
2018-05-17T07:34:49.822Z,13.20
2018-05-17T07:37:52.410Z,12.90
2018-05-17T07:40:54.983Z,12.97
2018-05-17T07:43:57.494Z,12.17
2018-05-17T07:47:00.034Z,12.00
2018-05-17T07:50:02.546Z,12.47
2018-05-17T07:53:05.100Z,12.07
2018-05-17T07:56:07.603Z,12.20
2018-05-17T07:59:10.181Z,11.80
2018-05-17T08:02:12.760Z,11.53
2018-05-17T08:05:15.244Z,11.97
2018-05-17T08:08:17.805Z,12.10
2018-05-17T08:11:20.389Z,11.50
2018-05-17T08:14:28.299Z,10.47
2018-05-17T08:17:30.910Z,11.07
2018-05-17T08:20:35.077Z,10.80
2018-05-17T08:23:37.688Z,10.53
2018-05-17T08:26:40.193Z,10.47
2018-05-17T08:29:42.708Z,11.33
2018-05-17T08:32:45.249Z,12.17
2018-05-17T08:35:47.773Z,12.20
2018-05-17T08:38:50.311Z,10.93
2018-05-17T08:41:52.880Z,11.97
2018-05-17T08:44:55.376Z,11.77
2018-05-17T08:47:57.890Z,10.83
2018-05-17T08:51:00.396Z,11.57
2018-05-17T08:54:02.896Z,11.00
2018-05-17T08:57:05.425Z,10.43
2018-05-17T09:00:07.949Z,9.67
2018-05-17T09:03:10.490Z,8.70
2018-05-17T09:06:13.042Z,8.90
2018-05-17T09:09:15.564Z,9.30
2018-05-17T09:12:18.113Z,8.63
2018-05-17T09:15:20.636Z,8.40
2018-05-17T09:18:23.419Z,7.90
2018-05-17T09:21:25.976Z,8.40
2018-05-17T09:24:28.540Z,8.17
2018-05-17T09:27:31.079Z,7.10
2018-05-17T09:30:33.643Z,7.60
2018-05-17T09:33:36.329Z,7.23
2018-05-17T09:36:43.810Z,7.80
2018-05-17T09:39:49.701Z,7.33
2018-05-17T09:42:58.367Z,7.83
2018-05-17T09:46:00.978Z,7.77
2018-05-17T09:49:03.566Z,6.73
2018-05-17T09:52:07.561Z,7.17
2018-05-17T09:55:12.195Z,6.50
2018-05-17T09:58:15.212Z,6.10
2018-05-17T10:01:19.943Z,6.13
2018-05-17T10:04:22.559Z,5.90
2018-05-17T10:07:25.266Z,6.20
2018-05-17T10:10:27.939Z,6.13
2018-05-17T10:13:30.511Z,6.90
2018-05-17T10:16:33.161Z,6.93
2018-05-17T10:19:35.752Z,7.10
2018-05-17T10:22:38.281Z,6.57
2018-05-17T10:25:40.872Z,7.50
2018-05-17T10:28:43.409Z,6.60
2018-05-17T10:45:46.776Z,6.53
2018-05-17T10:48:49.428Z,6.60
2018-05-17T10:51:51.876Z,6.97
2018-05-17T10:54:54.408Z,6.80
2018-05-17T10:57:56.952Z,5.93
2018-05-17T11:00:59.516Z,6.50
2018-05-17T11:04:02.072Z,6.30
2018-05-17T11:07:04.580Z,6.77
2018-05-17T11:10:07.114Z,6.90
2018-05-17T11:13:09.672Z,6.73
2018-05-17T11:16:12.209Z,6.50
2018-05-17T11:19:14.732Z,7.17
2018-05-17T11:22:17.327Z,7.30
2018-05-17T11:25:19.858Z,6.80
2018-05-17T11:28:22.409Z,7.23
2018-05-17T11:31:24.938Z,6.63
2018-05-17T11:34:27.465Z,9.77
2018-05-17T11:37:29.973Z,8.60
2018-05-17T11:40:32.464Z,8.27
2018-05-17T11:43:34.979Z,6.40
2018-05-17T11:46:37.504Z,9.53
2018-05-17T11:49:39.987Z,7.30
2018-05-17T11:52:42.520Z,6.77
2018-05-17T11:55:45.046Z,6.37
2018-05-17T11:58:47.564Z,6.27
2018-05-17T12:01:50.136Z,7.90
2018-05-17T12:04:52.682Z,6.40
2018-05-17T12:07:55.184Z,7.20
2018-05-17T12:10:57.740Z,6.80
2018-05-17T12:14:02.204Z,6.57
2018-05-17T12:17:05.215Z,7.47
2018-05-17T12:20:07.766Z,6.70
2018-05-17T12:23:10.363Z,8.10
2018-05-17T12:26:13.110Z,7.47
2018-05-17T12:29:15.629Z,8.20
2018-05-17T12:32:18.170Z,7.20
2018-05-17T12:35:20.695Z,7.17
2018-05-17T12:38:23.245Z,7.40
2018-05-17T12:41:25.793Z,6.80
2018-05-17T12:44:28.351Z,6.40
2018-05-17T12:47:31.553Z,6.90
2018-05-17T12:50:34.090Z,6.63
2018-05-17T12:53:36.622Z,6.87
2018-05-17T12:56:39.188Z,6.83
2018-05-17T12:59:42.578Z,7.30
2018-05-17T13:02:45.126Z,18.43
2018-05-17T13:05:47.656Z,8.17
2018-05-17T13:08:50.768Z,7.10
2018-05-17T13:11:53.320Z,6.63
2018-05-17T13:14:55.887Z,6.43
2018-05-17T13:17:58.412Z,6.60
2018-05-17T13:21:00.996Z,6.63
2018-05-17T13:24:03.527Z,8.33
2018-05-17T13:27:06.045Z,7.23
2018-05-17T13:30:08.722Z,6.23
2018-05-17T13:33:11.166Z,6.47
2018-05-17T13:36:13.701Z,6.63
2018-05-17T13:39:16.332Z,12.50
2018-05-17T13:42:18.907Z,7.77
2018-05-17T13:45:21.522Z,6.90
2018-05-17T13:48:24.108Z,6.53
2018-05-17T13:51:26.687Z,6.73
2018-05-17T13:54:29.289Z,8.33
2018-05-17T13:57:31.849Z,7.13
2018-05-17T14:00:34.705Z,6.70
2018-05-17T14:03:37.276Z,6.63
2018-05-17T14:06:39.895Z,13.17
2018-05-17T14:09:42.557Z,13.37
2018-05-17T14:12:45.077Z,6.23
2018-05-17T14:15:47.638Z,6.27
2018-05-17T14:18:50.259Z,6.80
2018-05-17T14:21:52.972Z,6.67
2018-05-17T14:24:55.613Z,6.17
2018-05-17T14:27:58.250Z,6.93
2018-05-17T14:31:00.858Z,6.20
2018-05-17T14:34:03.669Z,5.70
2018-05-17T14:37:07.475Z,6.00
2018-05-17T14:40:10.411Z,6.07
2018-05-17T14:43:13.227Z,6.27
2018-05-17T14:46:16.108Z,5.93
2018-05-17T14:49:20.018Z,6.30
2018-05-17T14:52:22.892Z,5.33
2018-05-17T14:55:26.743Z,6.30
2018-05-17T14:58:29.468Z,6.10
2018-05-17T15:01:32.142Z,5.90
2018-05-17T15:04:34.953Z,5.83
2018-05-17T15:07:37.698Z,6.37
2018-05-17T15:10:40.276Z,6.53
2018-05-17T15:13:42.884Z,6.57
2018-05-17T15:16:45.520Z,5.97
2018-05-17T15:19:48.267Z,5.97
2018-05-17T15:22:50.857Z,6.20
2018-05-17T15:25:53.459Z,5.23
2018-05-17T15:28:56.892Z,5.63
2018-05-17T15:31:59.560Z,5.83
2018-05-17T15:35:02.175Z,6.23
2018-05-17T15:38:04.851Z,5.83
2018-05-17T15:41:07.471Z,6.27
2018-05-17T15:44:10.977Z,5.50
2018-05-17T15:47:13.690Z,5.63
2018-05-17T15:50:16.325Z,5.73
2018-05-17T15:53:19.082Z,5.97
2018-05-17T15:56:21.810Z,5.90
2018-05-17T15:59:24.472Z,5.57
2018-05-17T16:02:27.176Z,5.27
2018-05-17T16:05:29.888Z,5.60
2018-05-17T16:08:32.562Z,5.27
2018-05-17T16:11:36.617Z,5.53
2018-05-17T16:14:39.378Z,6.07
2018-05-17T16:17:43.210Z,5.47
2018-05-17T16:20:45.947Z,5.80
2018-05-17T16:23:48.744Z,5.53
2018-05-17T16:26:51.463Z,5.87
2018-05-17T16:29:54.150Z,7.63
2018-05-17T16:32:56.775Z,6.63
2018-05-17T16:35:59.306Z,5.20
2018-05-17T16:39:01.889Z,6.03
2018-05-17T16:42:04.459Z,5.07
2018-05-17T16:45:06.973Z,5.60
2018-05-17T16:48:09.675Z,5.20
2018-05-17T16:51:12.203Z,5.37
2018-05-17T16:54:14.807Z,6.30
2018-05-17T16:57:17.404Z,5.30
2018-05-17T17:00:19.982Z,5.93
2018-05-17T17:03:22.629Z,6.53
2018-05-17T17:06:25.210Z,6.47
2018-05-17T17:09:27.858Z,6.07
2018-05-17T17:12:30.482Z,5.33
2018-05-17T17:15:33.071Z,5.60
2018-05-17T17:18:35.753Z,5.87
2018-05-17T17:21:38.421Z,5.70
2018-05-17T17:24:41.324Z,6.20
2018-05-17T17:27:44.150Z,6.50
2018-05-17T17:30:46.810Z,6.33
2018-05-17T17:33:49.427Z,6.03
2018-05-17T17:36:52.052Z,6.00
2018-05-17T17:39:55.754Z,6.43
2018-05-17T17:42:58.781Z,7.00
2018-05-17T17:46:02.327Z,5.60
2018-05-17T17:49:06.010Z,5.87
2018-05-17T17:52:08.784Z,5.80
2018-05-17T17:55:11.453Z,6.73
2018-05-17T17:58:15.489Z,6.03
2018-05-17T18:01:26.566Z,6.10
2018-05-17T18:07:48.097Z,6.17
2018-05-17T18:10:50.825Z,6.93
2018-05-17T18:13:53.633Z,6.73
2018-05-17T18:16:56.508Z,7.13
2018-05-17T18:19:59.451Z,7.10
2018-05-17T18:23:02.312Z,7.17
2018-05-17T18:26:05.181Z,7.57
2018-05-17T18:29:07.915Z,6.90
2018-05-17T18:32:10.625Z,7.90
2018-05-17T18:35:13.924Z,7.10
2018-05-17T18:38:17.429Z,6.93
2018-05-17T18:41:20.242Z,7.17
2018-05-17T18:44:22.966Z,6.30
2018-05-17T18:47:25.709Z,7.03
2018-05-17T18:50:29.406Z,6.93
2018-05-17T18:53:33.807Z,6.87
2018-05-17T18:56:36.745Z,6.70
2018-05-17T18:59:39.931Z,7.13
2018-05-17T19:02:42.837Z,7.13
2018-05-17T19:05:47.689Z,7.20
2018-05-17T19:08:50.723Z,7.03
2018-05-17T19:11:53.533Z,6.53
2018-05-17T19:14:56.424Z,6.90
2018-05-17T19:18:00.885Z,6.07
2018-05-17T19:21:04.277Z,6.77
2018-05-17T19:24:06.980Z,7.00
2018-05-17T19:27:09.945Z,6.60
2018-05-17T19:30:12.772Z,6.57
2018-05-17T19:33:15.798Z,6.93
2018-05-17T19:36:18.480Z,6.80
2018-05-17T19:39:21.538Z,7.00
2018-05-17T19:42:26.573Z,7.37
2018-05-17T19:45:30.947Z,7.17
2018-05-17T19:48:33.639Z,8.33
2018-05-17T19:51:37.392Z,7.63
2018-05-17T19:54:41.906Z,7.80
2018-05-17T19:57:44.772Z,8.03
2018-05-17T20:00:47.793Z,8.60
2018-05-17T20:03:51.060Z,7.60
2018-05-17T20:06:54.585Z,8.03
2018-05-17T20:09:57.420Z,7.90
2018-05-17T20:13:00.495Z,7.60
2018-05-17T20:16:03.301Z,7.80
2018-05-17T20:19:06.617Z,8.37
2018-05-17T20:22:09.252Z,9.90
2018-05-17T20:25:12.252Z,9.50
2018-05-17T20:28:16.324Z,8.80
2018-05-17T20:31:20.873Z,9.23
2018-05-17T20:34:25.841Z,9.80
2018-05-17T20:37:28.855Z,10.20
2018-05-17T20:40:33.003Z,9.97
2018-05-17T20:43:35.593Z,10.87
2018-05-17T20:46:38.224Z,10.00
2018-05-17T20:49:41.753Z,9.97
2018-05-17T20:52:44.321Z,10.10
2018-05-17T20:55:46.980Z,10.63
2018-05-17T20:58:49.623Z,10.67
2018-05-17T21:01:52.138Z,11.23
2018-05-17T21:04:54.784Z,10.80
2018-05-17T21:07:57.352Z,10.73
2018-05-17T21:10:59.935Z,10.40
2018-05-17T21:14:02.584Z,11.23
2018-05-17T21:17:05.231Z,10.23
2018-05-17T21:20:07.788Z,10.83
2018-05-17T21:23:11.622Z,10.47
2018-05-17T21:26:15.661Z,10.47
2018-05-17T21:29:18.230Z,10.87
2018-05-17T21:32:20.812Z,12.17
2018-05-17T21:35:23.358Z,12.17
2018-05-17T21:38:27.067Z,11.50
2018-05-17T21:41:29.594Z,12.53
2018-05-17T21:44:32.142Z,11.57
2018-05-17T21:47:34.755Z,11.80
2018-05-17T21:50:37.357Z,12.50
2018-05-17T21:53:39.886Z,12.43
2018-05-17T21:56:42.491Z,12.77
2018-05-17T21:59:45.114Z,12.53
2018-05-17T22:02:47.753Z,12.57
2018-05-17T22:05:50.394Z,12.80
2018-05-17T22:08:53.068Z,12.90
2018-05-17T22:12:01.233Z,13.03
2018-05-17T22:15:04.250Z,15.27
2018-05-17T22:18:06.844Z,12.60
2018-05-17T22:21:09.452Z,11.03
2018-05-17T22:24:11.976Z,12.47
2018-05-17T22:27:14.507Z,11.67
2018-05-17T22:30:17.043Z,12.17
2018-05-17T22:33:19.611Z,11.97
2018-05-17T22:36:22.648Z,11.77
2018-05-17T22:39:25.246Z,12.67
2018-05-17T22:42:27.883Z,12.17
2018-05-17T22:45:30.458Z,12.90
2018-05-17T22:48:33.095Z,12.40
2018-05-17T22:51:35.828Z,11.40
2018-05-17T22:54:38.360Z,13.17
2018-05-17T22:57:52.696Z,11.83
2018-05-17T23:00:55.216Z,11.80
2018-05-17T23:03:57.761Z,12.03
2018-05-17T23:07:00.325Z,13.10
2018-05-17T23:10:02.884Z,11.93
2018-05-17T23:13:05.455Z,13.17
2018-05-17T23:16:08.083Z,12.07
2018-05-17T23:19:10.656Z,11.80
2018-05-17T23:22:23.826Z,11.63
2018-05-17T23:25:26.341Z,11.50
2018-05-17T23:28:28.942Z,11.93
2018-05-17T23:31:31.481Z,11.77
2018-05-17T23:34:34.010Z,10.73
2018-05-17T23:37:36.585Z,11.50
2018-05-17T23:44:18.198Z,10.33
2018-05-17T23:47:20.903Z,10.40
2018-05-17T23:50:23.469Z,10.23
2018-05-17T23:53:26.026Z,10.77
2018-05-17T23:56:28.552Z,9.27
2018-05-17T23:59:31.105Z,9.40
